createdAt,value
2018-07-23T00:02:04.686Z,2.80
2018-07-23T00:04:33.112Z,2.80
2018-07-23T00:07:01.545Z,2.95
2018-07-23T00:09:30.089Z,2.70
2018-07-23T00:11:58.481Z,2.65
2018-07-23T00:14:27.004Z,3.15
2018-07-23T00:16:55.440Z,3.00
2018-07-23T00:19:23.852Z,3.20
2018-07-23T00:21:52.324Z,3.20
2018-07-23T00:24:20.783Z,3.40
2018-07-23T00:26:49.168Z,3.30
2018-07-23T00:29:18.075Z,3.30
2018-07-23T00:31:46.493Z,3.37
2018-07-23T00:34:14.901Z,3.60
2018-07-23T00:36:44.013Z,4.00
2018-07-23T00:39:12.429Z,4.33
2018-07-23T00:41:40.844Z,4.20
2018-07-23T00:44:09.245Z,4.20
2018-07-23T00:46:37.667Z,4.15
2018-07-23T00:49:06.122Z,4.08
2018-07-23T00:51:34.578Z,3.77
2018-07-23T00:54:03.300Z,3.98
2018-07-23T00:56:31.761Z,4.58
2018-07-23T00:59:00.181Z,4.60
2018-07-23T01:01:28.287Z,4.35
2018-07-23T01:03:56.680Z,4.20
2018-07-23T01:06:25.148Z,4.17
2018-07-23T01:08:53.556Z,4.00
2018-07-23T01:11:22.019Z,4.30
2018-07-23T01:13:50.452Z,4.10
2018-07-23T01:16:19.427Z,4.08
2018-07-23T01:18:47.832Z,3.65
2018-07-23T01:21:16.349Z,4.10
2018-07-23T01:23:44.804Z,4.90
2018-07-23T01:26:13.240Z,4.10
2018-07-23T01:28:41.671Z,4.33
2018-07-23T01:31:10.084Z,4.47
2018-07-23T01:33:38.493Z,4.35
2018-07-23T01:36:07.677Z,4.35
2018-07-23T01:38:36.075Z,4.40
2018-07-23T01:41:04.540Z,4.60
2018-07-23T01:43:33.124Z,4.70
2018-07-23T01:46:01.548Z,4.60
2018-07-23T01:48:30.717Z,4.78
2018-07-23T01:50:59.164Z,4.62
2018-07-23T01:53:27.663Z,4.97
2018-07-23T01:55:56.121Z,4.55
2018-07-23T01:58:24.518Z,4.90
2018-07-23T02:00:53.737Z,4.67
2018-07-23T02:03:22.132Z,4.62
2018-07-23T02:05:50.539Z,4.28
2018-07-23T02:08:18.993Z,4.17
2018-07-23T02:10:47.436Z,4.50
2018-07-23T02:13:15.852Z,4.37
2018-07-23T02:15:44.260Z,4.83
2018-07-23T02:18:12.771Z,4.00
2018-07-23T02:20:41.505Z,4.10
2018-07-23T02:23:09.892Z,4.15
2018-07-23T02:25:38.436Z,4.03
2018-07-23T02:28:06.861Z,4.00
2018-07-23T02:30:35.281Z,4.12
2018-07-23T02:33:03.776Z,4.37
2018-07-23T02:35:32.666Z,4.28
2018-07-23T02:38:01.122Z,3.87
2018-07-23T02:40:29.648Z,4.10
2018-07-23T02:42:58.113Z,4.40
2018-07-23T02:45:27.254Z,4.30
2018-07-23T02:47:55.704Z,4.78
2018-07-23T02:50:24.282Z,4.62
2018-07-23T02:52:52.760Z,5.10
2018-07-23T02:55:27.625Z,4.60
2018-07-23T02:57:56.075Z,4.45
2018-07-23T03:00:24.508Z,4.80
2018-07-23T03:02:52.956Z,4.40
2018-07-23T03:05:22.053Z,4.65
2018-07-23T03:07:50.473Z,4.53
2018-07-23T03:10:18.959Z,4.97
2018-07-23T03:12:48.104Z,5.33
2018-07-23T03:15:16.547Z,5.22
2018-07-23T03:17:44.965Z,5.83
2018-07-23T03:20:13.410Z,5.28
2018-07-23T03:22:41.854Z,5.97
2018-07-23T03:25:10.290Z,5.45
2018-07-23T03:27:38.797Z,5.25
2018-07-23T03:30:07.292Z,5.20
2018-07-23T03:32:35.711Z,5.80
2018-07-23T03:35:04.296Z,5.25
2018-07-23T03:37:32.692Z,5.58
2018-07-23T03:40:01.434Z,5.72
2018-07-23T03:42:30.500Z,5.25
2018-07-23T03:44:59.013Z,4.92
2018-07-23T03:47:27.409Z,4.97
2018-07-23T03:49:55.968Z,4.75
2018-07-23T03:52:24.403Z,4.87
2018-07-23T03:54:52.990Z,4.92
2018-07-23T03:57:21.470Z,5.22
2018-07-23T03:59:49.932Z,4.97
2018-07-23T04:02:18.373Z,4.83
2018-07-23T04:04:46.770Z,4.80
2018-07-23T04:07:15.220Z,5.70
2018-07-23T04:09:44.258Z,5.62
2018-07-23T04:12:12.669Z,5.28
2018-07-23T04:14:41.064Z,5.72
2018-07-23T04:17:10.157Z,5.20
2018-07-23T04:19:38.672Z,5.40
2018-07-23T04:22:07.148Z,9.98
2018-07-23T04:24:35.552Z,6.25
2018-07-23T04:27:04.074Z,5.58
2018-07-23T04:29:32.511Z,5.15
2018-07-23T04:32:01.048Z,5.03
2018-07-23T04:34:29.595Z,5.10
2018-07-23T04:36:58.024Z,5.25
2018-07-23T04:39:26.477Z,4.90
2018-07-23T04:41:54.868Z,5.47
2018-07-23T04:44:23.884Z,5.17
2018-07-23T04:46:52.376Z,5.50
2018-07-23T04:49:20.848Z,5.28
2018-07-23T04:51:49.245Z,5.08
2018-07-23T04:54:17.709Z,6.58
2018-07-23T04:56:46.214Z,8.78
2018-07-23T04:59:14.691Z,6.08
2018-07-23T05:01:43.622Z,6.20
2018-07-23T05:04:12.105Z,5.25
2018-07-23T05:06:40.484Z,5.70
2018-07-23T05:09:10.837Z,5.78
2018-07-23T05:11:39.600Z,5.53
2018-07-23T05:14:08.563Z,5.67
2018-07-23T05:16:37.100Z,6.03
2018-07-23T05:19:05.580Z,6.10
2018-07-23T05:21:33.984Z,6.28
2018-07-23T05:24:02.674Z,6.40
2018-07-23T05:26:31.476Z,6.28
2018-07-23T05:28:59.963Z,6.20
2018-07-23T05:31:28.389Z,5.83
2018-07-23T05:33:56.861Z,5.70
2018-07-23T05:36:25.618Z,5.72
2018-07-23T05:38:54.071Z,5.70
2018-07-23T05:41:22.480Z,5.50
2018-07-23T05:43:51.024Z,5.62
2018-07-23T05:46:19.832Z,5.15
2018-07-23T05:48:48.590Z,4.72
2018-07-23T05:51:17.028Z,4.10
2018-07-23T05:53:45.464Z,4.40
2018-07-23T05:56:13.932Z,3.85
2018-07-23T05:58:42.361Z,4.00
2018-07-23T06:01:10.771Z,6.90
2018-07-23T06:03:39.227Z,3.50
2018-07-23T06:06:08.292Z,3.45
2018-07-23T06:08:36.769Z,3.50
2018-07-23T06:11:05.575Z,3.40
2018-07-23T06:13:34.130Z,3.67
2018-07-23T06:16:03.402Z,3.20
2018-07-23T06:18:31.842Z,3.10
2018-07-23T06:21:00.382Z,3.20
2018-07-23T06:23:28.813Z,3.12
2018-07-23T06:25:57.246Z,3.27
2018-07-23T06:28:25.756Z,2.87
2018-07-23T06:30:54.224Z,3.65
2018-07-23T06:33:22.796Z,3.30
2018-07-23T06:35:51.261Z,3.20
2018-07-23T06:38:19.802Z,3.17
2018-07-23T06:40:48.248Z,2.90
2018-07-23T06:43:16.750Z,3.60
2018-07-23T06:45:45.837Z,3.00
2018-07-23T06:48:14.265Z,4.00
2018-07-23T06:50:42.677Z,3.62
2018-07-23T06:53:11.664Z,3.50
2018-07-23T06:55:40.144Z,3.25
2018-07-23T06:58:08.609Z,3.08
2018-07-23T07:00:37.047Z,3.30
2018-07-23T07:03:05.583Z,3.25
2018-07-23T07:05:33.992Z,2.77
2018-07-23T07:08:02.408Z,3.90
2018-07-23T07:10:31.016Z,3.70
2018-07-23T07:12:59.480Z,3.30
2018-07-23T07:15:27.905Z,2.95
2018-07-23T07:17:56.368Z,2.85
2018-07-23T07:20:24.848Z,3.65
2018-07-23T07:22:53.268Z,3.10
2018-07-23T07:25:21.723Z,3.30
2018-07-23T07:27:50.157Z,3.20
2018-07-23T07:30:18.636Z,3.12
2018-07-23T07:32:47.256Z,3.10
2018-07-23T07:35:15.705Z,3.40
2018-07-23T07:37:44.125Z,3.87
2018-07-23T07:40:12.539Z,4.25
2018-07-23T07:42:40.988Z,3.55
2018-07-23T07:45:09.465Z,3.85
2018-07-23T07:47:37.876Z,3.40
2018-07-23T07:50:06.408Z,3.40
2018-07-23T07:52:34.913Z,3.20
2018-07-23T07:55:03.361Z,3.08
2018-07-23T07:57:31.773Z,3.55
2018-07-23T08:00:00.211Z,3.30
2018-07-23T08:02:29.429Z,3.08
2018-07-23T08:04:57.863Z,2.85
2018-07-23T08:07:26.585Z,3.15
2018-07-23T08:09:55.052Z,3.20
2018-07-23T08:12:23.498Z,3.22
2018-07-23T08:14:51.977Z,2.95
2018-07-23T08:17:21.285Z,3.08
2018-07-23T08:19:49.724Z,3.22
2018-07-23T08:22:18.217Z,3.37
2018-07-23T08:24:46.669Z,3.10
2018-07-23T08:27:15.852Z,3.15
2018-07-23T08:29:44.376Z,3.70
2018-07-23T08:32:12.979Z,3.08
2018-07-23T08:34:41.305Z,3.08
2018-07-23T08:37:09.805Z,3.35
2018-07-23T08:39:38.270Z,3.15
2018-07-23T08:42:07.377Z,3.30
2018-07-23T08:44:35.872Z,3.05
2018-07-23T08:47:04.402Z,3.40
2018-07-23T08:49:32.858Z,3.20
2018-07-23T08:52:01.314Z,3.30
2018-07-23T08:54:29.964Z,2.92
2018-07-23T08:56:58.380Z,3.52
2018-07-23T08:59:26.888Z,3.20
2018-07-23T09:01:55.322Z,3.42
2018-07-23T09:04:24.031Z,3.30
2018-07-23T09:06:53.333Z,3.60
2018-07-23T09:09:21.765Z,4.08
2018-07-23T09:11:50.489Z,3.42
2018-07-23T09:14:19.032Z,4.05
2018-07-23T09:16:48.061Z,4.25
2018-07-23T09:19:17.084Z,3.77
2018-07-23T09:21:45.556Z,4.08
2018-07-23T09:24:13.960Z,4.80
2018-07-23T09:26:42.432Z,3.45
2018-07-23T09:29:11.040Z,3.77
2018-07-23T09:31:40.529Z,3.90
2018-07-23T09:34:09.109Z,3.40
2018-07-23T09:36:37.585Z,3.75
2018-07-23T09:39:08.944Z,3.67
2018-07-23T09:41:37.428Z,4.00
2018-07-23T09:44:05.972Z,4.40
2018-07-23T09:46:34.455Z,3.60
2018-07-23T09:49:03.027Z,4.12
2018-07-23T09:51:31.554Z,4.28
2018-07-23T09:53:59.968Z,4.35
2018-07-23T09:56:28.448Z,4.28
2018-07-23T09:58:56.629Z,6.28
2018-07-23T10:01:25.054Z,6.17
2018-07-23T10:03:53.576Z,6.80
2018-07-23T10:06:22.093Z,6.72
2018-07-23T10:08:50.571Z,7.08
2018-07-23T10:11:19.158Z,5.85
2018-07-23T10:13:47.648Z,7.00
2018-07-23T10:16:16.199Z,7.12
2018-07-23T10:18:44.796Z,8.48
2018-07-23T10:21:13.287Z,7.80
2018-07-23T10:23:41.787Z,6.95
2018-07-23T10:26:10.273Z,8.63
2018-07-23T10:28:38.754Z,7.80
2018-07-23T10:31:09.092Z,7.17
2018-07-23T10:33:37.604Z,7.92
2018-07-23T10:36:05.769Z,8.93
2018-07-23T10:38:34.620Z,7.42
2018-07-23T10:41:03.139Z,7.08
2018-07-23T10:43:31.574Z,6.83
2018-07-23T10:46:00.029Z,7.92
2018-07-23T10:48:28.486Z,6.10
2018-07-23T10:50:57.020Z,8.60
2018-07-23T10:53:25.484Z,7.60
2018-07-23T10:55:53.986Z,9.13
2018-07-23T10:58:22.529Z,7.60
2018-07-23T11:00:50.696Z,6.33
2018-07-23T11:03:19.173Z,7.33
2018-07-23T11:05:47.633Z,6.97
2018-07-23T11:08:16.200Z,6.70
2018-07-23T11:10:44.680Z,6.42
2018-07-23T11:13:13.283Z,7.20
2018-07-23T11:15:41.796Z,5.80
2018-07-23T11:18:10.266Z,6.28
2018-07-23T11:20:38.677Z,6.67
2018-07-23T11:23:07.149Z,6.40
2018-07-23T11:25:39.673Z,5.58
2018-07-23T11:28:04.116Z,5.60
2018-07-23T11:30:32.719Z,4.78
2018-07-23T11:33:01.189Z,5.25
2018-07-23T11:35:29.718Z,5.58
2018-07-23T11:37:58.169Z,5.22
2018-07-23T11:40:26.617Z,4.10
2018-07-23T11:42:54.795Z,4.70
2018-07-23T11:45:23.356Z,4.70
2018-07-23T11:47:51.789Z,4.70
2018-07-23T11:50:20.272Z,4.37
2018-07-23T11:52:48.865Z,3.70
2018-07-23T11:55:17.301Z,4.15
2018-07-23T11:57:45.741Z,3.95
2018-07-23T12:00:14.263Z,3.90
2018-07-23T12:02:43.188Z,3.58
2018-07-23T12:05:11.638Z,3.80
2018-07-23T12:07:40.147Z,3.37
2018-07-23T12:10:08.652Z,3.90
2018-07-23T12:12:37.126Z,4.08
2018-07-23T12:15:05.629Z,3.77
2018-07-23T12:17:34.143Z,3.47
2018-07-23T12:20:02.617Z,3.22
2018-07-23T12:22:31.117Z,3.50
2018-07-23T12:24:59.577Z,2.85
2018-07-23T12:27:28.008Z,3.70
2018-07-23T12:29:56.440Z,3.17
2018-07-23T12:32:24.968Z,3.27
2018-07-23T12:34:53.396Z,3.42
2018-07-23T12:37:21.837Z,3.65
2018-07-23T12:39:50.395Z,3.65
2018-07-23T12:42:18.862Z,3.37
2018-07-23T12:44:47.277Z,3.60
2018-07-23T12:47:15.808Z,3.50
2018-07-23T12:49:44.615Z,3.50
2018-07-23T12:52:13.201Z,3.75
2018-07-23T12:54:41.650Z,3.52
2018-07-23T12:57:10.248Z,3.00
2018-07-23T12:59:38.747Z,3.05
2018-07-23T13:02:07.292Z,3.20
2018-07-23T13:04:35.913Z,2.95
2018-07-23T13:07:04.376Z,3.40
2018-07-23T13:09:32.885Z,3.12
2018-07-23T13:12:01.324Z,3.02
2018-07-23T13:14:30.630Z,3.80
2018-07-23T13:16:59.111Z,3.22
2018-07-23T13:19:27.550Z,3.12
2018-07-23T13:21:56.012Z,3.25
2018-07-23T13:24:24.627Z,3.30
2018-07-23T13:26:53.235Z,3.35
2018-07-23T13:29:21.862Z,3.65
2018-07-23T13:31:50.413Z,3.30
2018-07-23T13:34:18.915Z,3.40
2018-07-23T13:36:47.380Z,3.45
2018-07-23T13:39:15.882Z,3.60
2018-07-23T13:41:44.405Z,3.80
2018-07-23T13:44:13.480Z,2.98
2018-07-23T13:46:41.962Z,3.40
2018-07-23T13:49:10.424Z,3.22
2018-07-23T13:51:38.898Z,3.30
2018-07-23T13:54:07.351Z,3.10
2018-07-23T13:56:36.161Z,3.30
2018-07-23T13:59:04.706Z,4.40
2018-07-23T14:01:34.032Z,3.85
2018-07-23T14:04:02.513Z,3.55
2018-07-23T14:06:31.675Z,3.20
2018-07-23T14:09:00.152Z,3.30
2018-07-23T14:11:28.592Z,3.40
2018-07-23T14:13:57.117Z,3.10
2018-07-23T14:16:25.631Z,3.02
2018-07-23T14:18:54.142Z,3.27
2018-07-23T14:21:22.565Z,3.27
2018-07-23T14:23:51.044Z,3.47
2018-07-23T14:26:19.496Z,3.30
2018-07-23T14:28:47.660Z,3.30
2018-07-23T14:31:16.173Z,3.60
2018-07-23T14:33:44.674Z,3.30
2018-07-23T14:36:13.129Z,3.33
2018-07-23T14:38:41.590Z,3.52
2018-07-23T14:41:10.032Z,3.10
2018-07-23T14:43:38.774Z,3.20
2018-07-23T14:46:07.216Z,2.87
2018-07-23T14:48:36.372Z,3.30
2018-07-23T14:51:05.119Z,3.10
2018-07-23T14:53:33.599Z,3.08
2018-07-23T14:56:02.124Z,2.80
2018-07-23T14:58:30.687Z,2.67
2018-07-23T15:00:59.180Z,3.00
2018-07-23T15:03:27.714Z,2.92
2018-07-23T15:05:56.136Z,2.90
2018-07-23T15:08:24.683Z,2.95
2018-07-23T15:10:53.434Z,3.22
2018-07-23T15:13:21.901Z,2.95
2018-07-23T15:15:50.458Z,3.30
2018-07-23T15:18:19.143Z,3.60
2018-07-23T15:20:47.686Z,5.67
2018-07-23T15:23:16.227Z,3.30
2018-07-23T15:25:44.689Z,3.37
2018-07-23T15:28:13.234Z,3.25
2018-07-23T15:30:41.717Z,3.20
2018-07-23T15:33:10.261Z,3.33
2018-07-23T15:35:38.817Z,3.22
2018-07-23T15:38:07.304Z,3.47
2018-07-23T15:40:35.761Z,3.17
2018-07-23T15:43:04.271Z,3.12
2018-07-23T15:45:32.878Z,3.10
2018-07-23T15:48:01.257Z,3.08
2018-07-23T15:50:29.847Z,4.78
2018-07-23T15:52:58.335Z,3.20
2018-07-23T15:55:26.789Z,3.08
2018-07-23T15:57:55.243Z,3.12
2018-07-23T16:00:24.471Z,3.20
2018-07-23T16:02:52.909Z,3.45
2018-07-23T16:05:22.338Z,2.83
2018-07-23T16:07:50.777Z,2.92
2018-07-23T16:10:19.252Z,2.95
2018-07-23T16:12:48.500Z,3.20
2018-07-23T16:15:16.944Z,3.12
2018-07-23T16:17:45.597Z,2.77
2018-07-23T16:20:14.261Z,2.83
2018-07-23T16:22:42.737Z,2.62
2018-07-23T16:25:11.932Z,4.15
2018-07-23T16:27:40.445Z,2.92
2018-07-23T16:30:09.509Z,2.90
2018-07-23T16:32:38.325Z,2.92
2018-07-23T16:35:08.621Z,2.70
2018-07-23T16:37:37.178Z,2.62
2018-07-23T16:40:06.603Z,3.12
2018-07-23T16:42:35.082Z,2.85
2018-07-23T16:45:03.629Z,3.12
2018-07-23T16:47:32.761Z,3.05
2018-07-23T16:50:01.229Z,2.85
2018-07-23T16:52:29.689Z,2.70
2018-07-23T16:54:58.405Z,3.00
2018-07-23T16:57:27.188Z,3.12
2018-07-23T16:59:55.746Z,2.90
2018-07-23T17:02:24.581Z,3.02
2018-07-23T17:04:53.090Z,3.42
2018-07-23T17:07:21.608Z,3.27
2018-07-23T17:09:50.077Z,3.20
2018-07-23T17:12:18.647Z,3.00
2018-07-23T17:14:47.088Z,3.12
2018-07-23T17:17:15.755Z,3.00
2018-07-23T17:19:44.403Z,3.10
2018-07-23T17:22:12.836Z,3.12
2018-07-23T17:24:41.303Z,3.20
2018-07-23T17:27:10.185Z,3.55
2018-07-23T17:29:38.617Z,3.10
2018-07-23T17:32:07.064Z,3.80
2018-07-23T17:34:35.629Z,3.27
2018-07-23T17:37:04.821Z,4.70
2018-07-23T17:39:34.072Z,3.20
2018-07-23T17:42:03.335Z,4.12
2018-07-23T17:44:31.828Z,3.52
2018-07-23T17:47:00.255Z,3.65
2018-07-23T17:49:28.738Z,3.45
2018-07-23T17:51:57.264Z,3.67
2018-07-23T17:54:25.873Z,7.47
2018-07-23T17:56:54.466Z,6.33
2018-07-23T17:59:23.540Z,3.72
2018-07-23T18:01:52.026Z,3.40
2018-07-23T18:04:20.462Z,3.85
2018-07-23T18:06:49.107Z,4.35
2018-07-23T18:09:17.681Z,3.10
2018-07-23T18:11:46.180Z,3.25
2018-07-23T18:14:14.661Z,3.10
2018-07-23T18:16:43.088Z,3.22
2018-07-23T18:19:11.561Z,3.37
2018-07-23T18:21:40.144Z,3.98
2018-07-23T18:24:08.881Z,3.10
2018-07-23T18:26:37.412Z,3.47
2018-07-23T18:29:05.885Z,3.50
2018-07-23T18:31:34.376Z,3.25
2018-07-23T18:34:02.791Z,3.05
2018-07-23T18:36:31.267Z,3.30
2018-07-23T18:38:59.723Z,3.60
2018-07-23T18:41:28.265Z,3.35
2018-07-23T18:43:56.745Z,3.62
2018-07-23T18:46:25.168Z,3.80
2018-07-23T18:49:33.624Z,3.42
2018-07-23T18:52:02.474Z,3.25
2018-07-23T18:54:31.927Z,3.92
2018-07-23T18:57:01.541Z,5.40
2018-07-23T18:59:30.896Z,4.65
2018-07-23T19:02:00.042Z,4.00
2018-07-23T19:04:28.595Z,3.90
2018-07-23T19:06:57.201Z,4.20
2018-07-23T19:09:26.199Z,4.20
2018-07-23T19:11:55.547Z,4.17
2018-07-23T19:14:23.995Z,3.70
2018-07-23T19:16:53.486Z,3.55
2018-07-23T19:19:21.683Z,3.80
2018-07-23T19:21:50.180Z,3.60
2018-07-23T19:24:18.655Z,3.85
2018-07-23T19:26:47.276Z,3.83
2018-07-23T19:29:15.745Z,4.17
2018-07-23T19:31:44.215Z,4.47
2018-07-23T19:34:12.897Z,4.85
2018-07-23T19:36:41.442Z,3.83
2018-07-23T19:39:11.556Z,4.37
2018-07-23T19:41:40.288Z,3.95
2018-07-23T19:44:09.849Z,4.03
2018-07-23T19:46:38.555Z,4.05
2018-07-23T19:49:07.055Z,3.83
2018-07-23T19:51:35.756Z,3.62
2018-07-23T19:54:04.453Z,3.35
2018-07-23T19:56:33.273Z,3.20
2018-07-23T19:59:01.712Z,3.80
2018-07-23T20:01:30.268Z,3.62
2018-07-23T20:03:58.772Z,3.50
2018-07-23T20:06:27.928Z,3.98
2018-07-23T20:08:57.338Z,3.50
2018-07-23T20:11:26.717Z,3.20
2018-07-23T20:13:55.207Z,3.25
2018-07-23T20:16:23.692Z,3.75
2018-07-23T20:18:52.300Z,4.10
2018-07-23T20:21:20.753Z,4.08
2018-07-23T20:23:49.413Z,4.12
2018-07-23T20:26:18.662Z,3.72
2018-07-23T20:28:47.266Z,3.83
2018-07-23T20:31:15.865Z,3.83
2018-07-23T20:33:44.317Z,3.65
2018-07-23T20:36:12.848Z,4.05
2018-07-23T20:38:41.381Z,4.20
2018-07-23T20:41:09.975Z,3.80
2018-07-23T20:43:38.397Z,4.10
2018-07-23T20:46:06.976Z,3.80
2018-07-23T20:48:36.426Z,4.65
2018-07-23T20:51:04.618Z,6.60
2018-07-23T20:53:33.089Z,6.42
2018-07-23T20:56:02.429Z,4.40
2018-07-23T20:58:30.900Z,3.80
2018-07-23T21:00:59.341Z,4.28
2018-07-23T21:03:28.005Z,3.90
2018-07-23T21:05:56.408Z,4.05
2018-07-23T21:08:26.114Z,7.30
2018-07-23T21:10:54.568Z,4.58
2018-07-23T21:13:23.060Z,6.03
2018-07-23T21:15:51.609Z,5.90
2018-07-23T21:18:20.079Z,6.90
2018-07-23T21:20:48.734Z,4.72
2018-07-23T21:23:17.245Z,4.47
2018-07-23T21:25:45.748Z,3.85
2018-07-23T21:28:14.770Z,3.47
2018-07-23T21:30:43.362Z,3.58
2018-07-23T21:33:11.494Z,3.87
2018-07-23T21:35:40.285Z,3.58
2018-07-23T21:38:08.831Z,5.62
2018-07-23T21:40:37.523Z,4.30
2018-07-23T21:43:06.345Z,5.87
2018-07-23T21:45:34.887Z,5.10
2018-07-23T21:48:03.432Z,11.30
2018-07-23T21:50:31.924Z,9.53
2018-07-23T21:53:00.488Z,5.55
2018-07-23T21:55:29.092Z,4.30
2018-07-23T21:57:57.529Z,3.90
2018-07-23T22:00:26.043Z,4.92
2018-07-23T22:02:54.516Z,4.37
2018-07-23T22:05:23.199Z,6.58
2018-07-23T22:07:51.701Z,13.93
2018-07-23T22:10:20.213Z,5.22
2018-07-23T22:12:49.636Z,4.60
2018-07-23T22:15:18.157Z,4.80
2018-07-23T22:17:46.669Z,4.28
2018-07-23T22:20:15.194Z,4.47
2018-07-23T22:22:43.696Z,4.47
2018-07-23T22:25:12.210Z,4.53
2018-07-23T22:27:40.663Z,6.28
2018-07-23T22:30:09.308Z,4.40
2018-07-23T22:32:37.793Z,4.30
2018-07-23T22:35:06.336Z,4.53
2018-07-23T22:37:35.558Z,4.90
2018-07-23T22:40:04.068Z,5.65
2018-07-23T22:42:35.072Z,4.67
2018-07-23T22:45:03.561Z,7.50
2018-07-23T22:47:32.029Z,5.62
2018-07-23T22:50:00.443Z,4.87
2018-07-23T22:52:29.620Z,4.47
2018-07-23T22:54:58.056Z,4.30
2018-07-23T22:57:27.116Z,4.45
2018-07-23T22:59:55.568Z,4.87
2018-07-23T23:02:23.991Z,5.05
2018-07-23T23:04:52.585Z,5.08
2018-07-23T23:07:20.992Z,5.30
2018-07-23T23:09:49.446Z,4.78
2018-07-23T23:12:17.953Z,4.95
2018-07-23T23:14:46.432Z,5.40
2018-07-23T23:17:14.892Z,4.85
2018-07-23T23:19:43.312Z,4.85
2018-07-23T23:22:11.760Z,5.15
2018-07-23T23:24:40.309Z,4.87
2018-07-23T23:27:08.737Z,4.85
2018-07-23T23:29:37.155Z,4.97
2018-07-23T23:32:05.815Z,4.92
2018-07-23T23:34:34.311Z,5.00
2018-07-23T23:37:02.760Z,5.00
2018-07-23T23:39:31.204Z,4.78
2018-07-23T23:41:59.632Z,4.90
2018-07-23T23:44:28.047Z,5.12
2018-07-23T23:46:56.699Z,5.05
2018-07-23T23:49:25.131Z,5.08
2018-07-23T23:51:53.595Z,5.00
2018-07-23T23:54:22.044Z,5.12
2018-07-23T23:56:50.479Z,5.28
2018-07-23T23:59:18.873Z,5.17
